AKDT,Max TemperatureF,Mean TemperatureF,Min TemperatureF,Max Dew PointF,MeanDew PointF,Min DewpointF,Max Humidity, Mean Humidity, Min Humidity, Max Sea Level PressureIn, Mean Sea Level PressureIn, Min Sea Level PressureIn, Max VisibilityMiles, Mean VisibilityMiles, Min VisibilityMiles, Max Wind SpeedMPH, Mean Wind SpeedMPH, Max Gust SpeedMPH,PrecipitationIn, CloudCover, Events, WindDirDegrees
2012-9-1,47,45,43,,,,,,,29.73,29.63,29.48,10,10,6,24,11,43,0.20,6,Rain,178
2012-9-2,51,48,46,,,,,,,29.48,29.21,29.02,10,3,2,25,18,46,2.84,7,Rain,163
2012-9-3,48,45,42,,,,,,,29.69,29.36,29.00,10,5,1,34,18,44,0.13,7,Fog-Rain-Thunderstorm,243
2012-9-4,50,47,44,,,,,,,29.65,29.24,29.07,10,6,2,32,20,67,0.78,6,Rain,159
2012-9-5,46,45,42,,,,,,,29.70,29.45,29.13,12,5,1,25,23,44,0.00,7,,210
2012-9-6,45,44,42,43,42,39,100,91,81,30.10,30.05,29.94,10,9,2,30,16,44,0.32,6,Rain,211
2012-9-7,46,44,42,44,41,37,100,88,75,29.93,29.89,29.85,10,9,4,26,18,38,0.51,6,Rain,283
2012-9-8,48,45,42,46,43,40,100,91,79,30.15,30.05,29.90,10,10,5,18,10,,0.00,6,Rain-Thunderstorm,356
2012-9-9,46,44,42,41,39,34,93,79,64,30.16,30.09,29.97,10,10,10,16,9,,0.00,7,,324
2012-9-10,47,44,42,44,41,37,91,84,75,29.97,29.76,29.65,10,10,4,37,16,47,0.02,6,Rain,144
2012-9-11,48,46,45,48,46,43,100,98,86,29.65,29.61,29.57,12,8,2,31,18,41,0.39,7,Rain,92
2012-9-12,48,46,45,47,45,42,100,94,83,29.96,29.78,29.66,10,10,6,20,12,24,0.02,7,Rain,336
2012-9-13,46,44,42,45,40,35,100,86,74,29.98,29.92,29.77,10,10,10,18,11,,0.04,6,Rain,302
2012-9-14,46,43,40,47,43,37,100,96,87,29.75,29.64,29.53,10,8,2,15,9,20,0.21,7,Rain,100
2012-9-15,48,45,42,49,45,42,100,99,87,29.57,29.38,28.95,10,5,0,26,14,32,1.14,7,Fog-Rain,90
2012-9-16,49,45,40,49,40,34,100,87,71,29.52,29.00,28.71,10,8,2,36,18,50,0.69,6,Rain,235
2012-9-17,48,44,39,46,38,30,100,82,65,29.69,29.55,29.31,10,9,4,29,18,48,0.06,6,Rain,183
2012-9-18,47,44,42,46,43,39,100,92,86,29.47,29.42,29.37,10,10,6,28,19,44,0.00,6,Rain-Thunderstorm,184
2012-9-19,44,42,39,43,39,34,100,91,76,29.70,29.50,29.41,10,9,1,18,10,21,0.01,6,Rain-Thunderstorm,276
2012-9-20,43,40,37,39,36,33,93,82,75,29.73,29.71,29.68,10,10,7,13,6,13,0.02,5,Rain,301
2012-9-21,44,42,40,41,38,36,91,84,76,29.77,29.67,29.45,10,10,9,33,12,43,0.00,6,Rain,13
2012-9-22,42,40,38,41,39,36,100,95,82,29.51,29.36,29.28,10,8,5,41,35,50,0.04,8,Rain,350
2012-9-23,,,,,,,,,,,,,,,,,,,0.00,,,-1
2012-9-24,41,38,35,39,35,30,100,87,67,29.77,29.62,29.44,10,10,10,22,15,37,0.02,7,Rain,104
2012-9-25,46,42,39,44,41,36,100,93,85,29.43,29.20,29.05,10,10,5,21,11,33,0.04,8,Rain-Thunderstorm,54
2012-9-26,47,44,42,44,42,40,100,93,83,29.15,29.08,29.02,10,9,6,29,11,37,0.04,5,Rain-Thunderstorm,42
2012-9-27,42,39,36,42,33,27,100,82,66,29.54,29.32,29.12,10,10,5,40,31,52,0.00,7,Rain-Thunderstorm,352
2012-9-28,37,34,30,30,27,23,100,73,60,29.65,29.61,29.53,10,10,4,32,24,39,0.04,6,Rain-Snow,344
2012-9-29,37,34,32,34,32,27,100,90,75,29.97,29.79,29.62,10,9,1,20,10,24,0.02,6,Rain-Snow,346
2012-9-30,43,37,32,43,35,24,100,89,60,30.01,29.96,29.89,10,8,2,29,12,40,0.56,6,Rain-Snow,178